Time;durP1;ratioP1;P1;durP2;ratioP2;P2;SDS_P1;SDS_P2;PMS_P1;PMS_P2;Temp;Humidity;BMP_temperature;BMP_pressure;BME280_temperature;BME280_humidity;BME280_pressure;Samples;Min_cycle;Max_cycle;Signal;HPM_P1;HPM_P2
2022/12/14 00:01:08;;;;;;;47.90;23.20;;;-5.80;99.90;;;;;;5053643;28;20032;-47
2022/12/14 00:03:34;;;;;;;50.40;22.98;;;-5.80;99.90;;;;;;5052563;28;20017;-48
2022/12/14 00:06:24;;;;;;;51.70;21.77;;;-5.80;99.90;;;;;;5053784;28;20467;-48
2022/12/14 00:08:51;;;;;;;50.00;23.90;;;-5.80;99.90;;;;;;5053812;28;20032;-48
2022/12/14 00:11:18;;;;;;;51.72;23.65;;;-5.80;99.90;;;;;;5053348;28;20033;-48
2022/12/14 00:13:44;;;;;;;51.78;21.67;;;-5.80;99.90;;;;;;5053584;28;20021;-49
2022/12/14 00:16:15;;;;;;;52.05;23.77;;;-5.80;99.90;;;;;;5053578;28;20040;-49
2022/12/14 00:18:41;;;;;;;49.92;24.67;;;-5.80;99.90;;;;;;5053560;28;20025;-49
2022/12/14 00:21:12;;;;;;;53.58;24.70;;;-5.80;99.90;;;;;;5053223;28;20052;-48
2022/12/14 00:23:39;;;;;;;51.45;23.88;;;-5.80;99.90;;;;;;5053351;28;20494;-48
2022/12/14 00:26:09;;;;;;;49.88;23.02;;;-5.80;99.90;;;;;;5053362;28;20025;-48
2022/12/14 00:28:35;;;;;;;58.92;25.73;;;-5.90;99.90;;;;;;5053617;28;20131;-49
2022/12/14 00:31:01;;;;;;;53.20;24.73;;;-5.80;99.90;;;;;;5053156;28;20537;-48
2022/12/14 00:33:26;;;;;;;53.63;23.60;;;-5.90;99.90;;;;;;5051809;28;20113;-48
2022/12/14 00:35:52;;;;;;;54.30;23.88;;;-5.90;99.90;;;;;;5053141;28;20100;-48
2022/12/14 00:38:17;;;;;;;50.55;23.13;;;-5.90;99.90;;;;;;5053147;28;20634;-48
2022/12/14 00:40:43;;;;;;;49.83;23.83;;;-6.00;99.90;;;;;;5052743;28;20092;-48
2022/12/14 00:43:08;;;;;;;51.22;22.73;;;-6.00;99.90;;;;;;5053031;28;20025;-48
2022/12/14 00:45:34;;;;;;;50.00;22.92;;;-6.00;99.90;;;;;;5053220;28;20029;-48
2022/12/14 00:48:01;;;;;;;54.17;24.02;;;-6.00;99.90;;;;;;5053102;28;20029;-49
2022/12/14 00:50:26;;;;;;;49.80;23.30;;;-6.00;99.90;;;;;;5052420;28;20466;-48
2022/12/14 00:52:52;;;;;;;50.03;22.55;;;-6.00;99.90;;;;;;5052738;28;20032;-48
2022/12/14 00:55:17;;;;;;;47.63;22.52;;;-6.10;99.90;;;;;;5052344;28;20101;-49
2022/12/14 00:57:43;;;;;;;50.78;22.77;;;-6.10;99.90;;;;;;5052183;28;20036;-48
2022/12/14 01:00:09;;;;;;;49.83;23.05;;;-6.10;99.90;;;;;;5051667;28;20017;-48
2022/12/14 01:02:34;;;;;;;47.75;22.33;;;-6.20;99.90;;;;;;5052696;28;20029;-48
2022/12/14 01:05:00;;;;;;;44.30;21.17;;;-6.20;99.90;;;;;;5052564;28;20105;-48
2022/12/14 01:07:25;;;;;;;57.83;24.95;;;-6.20;99.90;;;;;;5052617;28;20025;-49
2022/12/14 01:09:51;;;;;;;50.92;23.10;;;-6.30;99.90;;;;;;5051936;28;20040;-48
2022/12/14 01:12:16;;;;;;;54.70;25.10;;;-6.30;99.90;;;;;;5052351;28;20029;-48
2022/12/14 01:14:41;;;;;;;51.25;23.55;;;-6.30;99.90;;;;;;5052235;28;20065;-49
2022/12/14 01:17:07;;;;;;;46.83;23.42;;;-6.30;99.90;;;;;;5050875;28;20151;-48
2022/12/14 01:19:33;;;;;;;47.53;23.02;;;-6.30;99.90;;;;;;5051610;28;20066;-47
2022/12/14 01:21:59;;;;;;;52.60;22.65;;;-6.40;99.90;;;;;;5051990;28;20025;-48
2022/12/14 01:24:25;;;;;;;55.72;25.65;;;-6.40;99.90;;;;;;5051855;28;20017;-49
2022/12/14 01:26:50;;;;;;;54.17;23.85;;;-6.40;99.90;;;;;;5051872;28;20029;-48
2022/12/14 01:29:16;;;;;;;52.30;22.45;;;-6.40;99.90;;;;;;5051685;28;20083;-48
2022/12/14 01:31:41;;;;;;;57.90;24.38;;;-6.40;99.90;;;;;;5052114;28;20075;-48
2022/12/14 01:34:08;;;;;;;54.35;23.15;;;-6.40;99.90;;;;;;5051920;28;20017;-48
2022/12/14 01:36:35;;;;;;;53.47;23.38;;;-6.40;99.90;;;;;;5050514;28;20043;-50
2022/12/14 01:39:08;;;;;;;53.47;23.75;;;-6.50;99.90;;;;;;5051697;28;20025;-48
2022/12/14 01:41:52;;;;;;;51.28;24.75;;;-6.50;99.90;;;;;;5051888;28;20096;-48
2022/12/14 01:44:17;;;;;;;52.22;22.92;;;-6.50;99.90;;;;;;5051943;28;20549;-49
2022/12/14 01:46:59;;;;;;;50.65;24.48;;;-6.40;99.90;;;;;;5051893;28;20029;-48
2022/12/14 01:49:54;;;;;;;42.15;21.98;;;-6.50;99.90;;;;;;5051441;28;20029;-48
2022/12/14 01:52:39;;;;;;;46.78;20.85;;;-6.50;99.90;;;;;;5050334;28;20037;-48
2022/12/14 01:55:17;;;;;;;52.63;22.88;;;-6.50;99.90;;;;;;5049685;28;20542;-48
2022/12/14 01:58:09;;;;;;;54.13;23.70;;;-6.50;99.90;;;;;;5050664;28;20041;-49
2022/12/14 02:00:35;;;;;;;53.92;24.42;;;-6.40;99.90;;;;;;5051171;28;20021;-48
2022/12/14 02:03:18;;;;;;;59.42;25.08;;;-6.50;99.90;;;;;;5051186;28;20096;-48
2022/12/14 02:06:00;;;;;;;51.65;24.15;;;-6.50;99.90;;;;;;5051397;28;20051;-50
2022/12/14 02:08:26;;;;;;;55.63;22.98;;;-6.60;99.90;;;;;;5051334;28;20104;-48
2022/12/14 02:10:54;;;;;;;49.85;24.77;;;-6.50;99.90;;;;;;5049612;28;20033;-48
2022/12/14 02:13:26;;;;;;;54.17;23.52;;;-6.50;99.90;;;;;;5051201;28;20052;-50
2022/12/14 02:15:52;;;;;;;54.60;24.67;;;-6.50;99.90;;;;;;5051238;28;20029;-48
2022/12/14 02:18:20;;;;;;;55.22;23.08;;;-6.50;99.90;;;;;;5051005;28;20033;-49
2022/12/14 02:21:12;;;;;;;63.33;24.83;;;-6.50;99.90;;;;;;5050718;28;20017;-49
2022/12/14 02:24:02;;;;;;;56.75;22.75;;;-6.50;99.90;;;;;;5047827;28;20399;-48
2022/12/14 02:26:39;;;;;;;51.97;23.25;;;-6.60;99.90;;;;;;5051057;28;20131;-48
2022/12/14 02:29:23;;;;;;;50.53;25.45;;;-6.60;99.90;;;;;;5050966;28;20031;-48
2022/12/14 02:32:03;;;;;;;52.00;22.05;;;-6.60;99.90;;;;;;5050876;28;20060;-48
2022/12/14 02:35:06;;;;;;;54.25;21.65;;;-6.60;99.90;;;;;;5050968;28;20051;-51
2022/12/14 02:37:46;;;;;;;60.90;23.67;;;-6.60;99.90;;;;;;5038234;28;20041;-50
2022/12/14 02:40:28;;;;;;;56.10;23.75;;;-6.60;99.90;;;;;;5050220;28;20021;-49
2022/12/14 02:43:20;;;;;;;47.10;22.50;;;-6.60;99.90;;;;;;5050790;28;20103;-51
2022/12/14 02:46:17;;;;;;;51.13;22.65;;;-6.50;99.90;;;;;;5050865;28;20017;-49
2022/12/14 02:49:05;;;;;;;53.40;22.23;;;-6.60;99.90;;;;;;5050534;28;20029;-50
2022/12/14 02:51:51;;;;;;;53.65;22.30;;;-6.50;99.90;;;;;;5050155;28;20040;-49
2022/12/14 02:54:30;;;;;;;52.33;22.45;;;-6.50;99.90;;;;;;5050512;28;20111;-50
2022/12/14 02:57:07;;;;;;;52.42;23.08;;;-6.50;99.90;;;;;;5050638;28;20552;-48
2022/12/14 02:59:33;;;;;;;47.35;21.75;;;-6.50;99.90;;;;;;5050226;28;20056;-50
2022/12/14 03:02:02;;;;;;;46.97;22.50;;;-6.60;99.90;;;;;;5050482;28;20025;-48
2022/12/14 03:04:27;;;;;;;52.28;23.00;;;-6.60;99.90;;;;;;5050340;28;20025;-48
2022/12/14 03:07:01;;;;;;;51.47;23.58;;;-6.60;99.90;;;;;;5048987;28;20028;-50
2022/12/14 03:09:29;;;;;;;46.55;23.02;;;-6.60;99.90;;;;;;5049799;28;20029;-50
2022/12/14 03:11:59;;;;;;;51.67;21.50;;;-6.60;99.90;;;;;;5050210;28;20433;-49
2022/12/14 03:14:34;;;;;;;46.28;20.33;;;-6.60;99.90;;;;;;5050006;28;20029;-49
2022/12/14 03:17:06;;;;;;;52.35;22.08;;;-6.60;99.90;;;;;;5048831;28;20960;-49
2022/12/14 03:19:38;;;;;;;46.55;21.80;;;-6.60;99.90;;;;;;5049782;28;20033;-49
2022/12/14 03:22:14;;;;;;;42.70;21.17;;;-6.60;99.90;;;;;;5049672;28;20090;-49
2022/12/14 03:24:43;;;;;;;46.30;22.17;;;-6.70;99.90;;;;;;5050265;28;20027;-49
2022/12/14 03:27:28;;;;;;;48.97;22.83;;;-6.70;99.90;;;;;;5050190;28;20443;-49
2022/12/14 03:30:01;;;;;;;46.30;22.27;;;-6.70;99.90;;;;;;5049777;28;20083;-49
2022/12/14 03:32:31;;;;;;;56.20;23.00;;;-6.70;99.90;;;;;;5049940;28;20052;-50
2022/12/14 03:35:09;;;;;;;49.60;21.55;;;-6.70;99.90;;;;;;5050038;28;20024;-50
2022/12/14 03:37:46;;;;;;;47.55;21.42;;;-6.70;99.90;;;;;;5050071;28;20032;-49
2022/12/14 03:40:13;;;;;;;53.30;22.80;;;-6.80;99.90;;;;;;5049510;28;20033;-48
2022/12/14 03:43:01;;;;;;;50.45;22.58;;;-6.70;99.90;;;;;;5049855;28;20013;-49
2022/12/14 03:45:46;;;;;;;50.88;22.55;;;-6.70;99.90;;;;;;5050090;28;20025;-49
2022/12/14 03:48:45;;;;;;;55.35;24.48;;;-6.70;99.90;;;;;;5039293;28;20613;-49
2022/12/14 03:51:32;;;;;;;47.70;22.13;;;-6.70;99.90;;;;;;5038623;28;20026;-50
2022/12/14 03:54:15;;;;;;;53.58;21.95;;;-6.80;99.90;;;;;;5039873;28;20057;-49
2022/12/14 03:56:56;;;;;;;54.53;22.00;;;-6.80;99.90;;;;;;5038891;28;20108;-48
2022/12/14 03:59:26;;;;;;;54.65;21.50;;;-6.80;99.90;;;;;;5036336;28;20033;-49
2022/12/14 04:02:01;;;;;;;47.72;21.70;;;-6.90;99.90;;;;;;5038679;28;20013;-49
2022/12/14 04:04:36;;;;;;;46.33;21.98;;;-6.90;99.90;;;;;;5038714;28;20021;-49
2022/12/14 04:07:10;;;;;;;49.28;20.75;;;-6.90;99.90;;;;;;5038270;28;20061;-49
2022/12/14 04:09:50;;;;;;;49.03;20.35;;;-6.90;99.90;;;;;;5037968;28;20025;-49
2022/12/14 04:21:18;;;;;;;48.20;20.92;;;-7.00;99.90;;;;;;5039301;28;20104;-49
2022/12/14 04:26:41;;;;;;;44.05;20.58;;;-7.00;99.90;;;;;;5038188;28;20047;-50
2022/12/14 04:32:22;;;;;;;43.78;20.45;;;-7.00;99.90;;;;;;5039952;28;20391;-49
2022/12/14 04:34:53;;;;;;;50.08;21.05;;;-7.00;99.90;;;;;;5041457;28;20083;-51
2022/12/14 04:37:21;;;;;;;52.75;22.75;;;-7.00;99.90;;;;;;5041560;28;20103;-49
2022/12/14 04:39:55;;;;;;;49.20;20.55;;;-7.00;99.90;;;;;;5042069;28;20025;-51
2022/12/14 04:42:29;;;;;;;50.15;21.85;;;-7.00;99.90;;;;;;5043402;28;20033;-48
2022/12/14 04:45:00;;;;;;;41.05;19.30;;;-7.00;99.90;;;;;;5043363;28;20102;-52
2022/12/14 04:47:31;;;;;;;41.50;19.05;;;-7.00;99.90;;;;;;5042454;28;20063;-49
2022/12/14 04:50:29;;;;;;;47.58;20.80;;;-7.00;99.90;;;;;;5041641;28;20033;-52
2022/12/14 04:53:06;;;;;;;47.05;22.10;;;-7.00;99.90;;;;;;5040834;28;20100;-51
2022/12/14 04:55:39;;;;;;;47.20;19.77;;;-7.10;99.90;;;;;;5045444;28;20470;-49
2022/12/14 04:58:10;;;;;;;61.17;22.92;;;-7.10;99.90;;;;;;5052376;28;20029;-48
2022/12/14 05:00:44;;;;;;;47.88;21.15;;;-7.10;99.90;;;;;;5052215;28;20017;-49
2022/12/14 05:03:32;;;;;;;46.95;20.83;;;-7.10;99.90;;;;;;5052244;28;20485;-48
2022/12/14 05:06:22;;;;;;;50.60;21.98;;;-7.10;99.90;;;;;;5052433;28;20048;-49
2022/12/14 05:09:04;;;;;;;;;;;-7.20;99.90;;;;;;5052712;28;20040;-49
2022/12/14 05:11:44;;;;;;;48.17;20.30;;;-7.10;99.90;;;;;;5051748;28;19915;-48
2022/12/14 05:14:13;;;;;;;;;;;-7.20;99.90;;;;;;5051605;28;20055;-50
2022/12/14 05:16:38;;;;;;;47.97;21.45;;;-7.20;99.90;;;;;;5052209;28;19958;-50
2022/12/14 05:19:10;;;;;;;48.78;21.88;;;-7.20;99.90;;;;;;5052035;28;20025;-48
2022/12/14 05:21:48;;;;;;;50.13;21.48;;;-7.20;99.90;;;;;;5052147;28;20071;-49
2022/12/14 05:24:14;;;;;;;52.35;21.65;;;-7.20;99.90;;;;;;5052031;28;20036;-51
2022/12/14 05:26:40;;;;;;;58.70;22.40;;;-7.20;99.90;;;;;;5052071;28;20079;-49
2022/12/14 05:29:05;;;;;;;52.97;21.52;;;-7.20;99.90;;;;;;5051855;28;20021;-51
2022/12/14 05:31:31;;;;;;;51.38;22.08;;;-7.30;99.90;;;;;;5051882;28;20025;-49
2022/12/14 05:33:56;;;;;;;43.10;20.52;;;-7.30;99.90;;;;;;5051858;28;20025;-49
2022/12/14 05:36:22;;;;;;;54.60;24.05;;;-7.30;99.90;;;;;;5051494;28;20131;-48
2022/12/14 05:38:48;;;;;;;48.20;23.83;;;-7.30;99.90;;;;;;5050954;28;20397;-50
2022/12/14 05:41:13;;;;;;;48.42;22.25;;;-7.30;99.90;;;;;;5050569;28;20366;-48
2022/12/14 05:43:39;;;;;;;47.08;21.80;;;-7.30;99.90;;;;;;5051032;28;20079;-49
2022/12/14 05:46:04;;;;;;;62.10;22.50;;;-7.30;99.90;;;;;;5050525;28;20094;-49
2022/12/14 05:48:30;;;;;;;51.85;21.95;;;-7.30;99.90;;;;;;5050928;28;20081;-49
2022/12/14 05:51:11;;;;;;;55.10;23.33;;;-7.30;99.90;;;;;;5050565;28;20403;-52
2022/12/14 05:53:37;;;;;;;54.45;23.42;;;-7.30;99.90;;;;;;5051677;28;20087;-52
2022/12/14 05:56:07;;;;;;;49.35;20.65;;;-7.30;99.90;;;;;;5051318;28;20039;-55
2022/12/14 05:58:34;;;;;;;52.53;22.38;;;-7.30;99.90;;;;;;5046537;28;20642;-53
2022/12/14 06:01:05;;;;;;;46.75;19.95;;;-7.30;99.90;;;;;;5047983;28;20064;-49
2022/12/14 06:03:31;;;;;;;47.20;21.65;;;-7.30;99.90;;;;;;5046345;28;20389;-50
2022/12/14 06:06:08;;;;;;;54.65;23.70;;;-7.30;99.90;;;;;;5049500;28;20025;-48
2022/12/14 06:08:37;;;;;;;46.00;20.90;;;-7.30;99.90;;;;;;5048857;28;20696;-52
2022/12/14 06:11:15;;;;;;;53.38;23.17;;;-7.30;99.90;;;;;;5041374;28;20037;-52
2022/12/14 06:13:41;;;;;;;52.90;21.08;;;-7.30;99.90;;;;;;5050688;28;20024;-49
2022/12/14 06:16:09;;;;;;;46.58;21.42;;;-7.30;99.90;;;;;;5050682;28;20036;-53
2022/12/14 06:18:34;;;;;;;55.45;20.30;;;-7.30;99.90;;;;;;5049575;28;20590;-49
2022/12/14 06:21:00;;;;;;;47.97;21.45;;;-7.30;99.90;;;;;;5048624;28;20025;-49
2022/12/14 06:23:26;;;;;;;44.92;20.60;;;-7.30;99.90;;;;;;5048948;28;20528;-50
2022/12/14 06:25:55;;;;;;;47.67;21.13;;;-7.20;99.90;;;;;;5045201;28;20045;-49
2022/12/14 06:28:21;;;;;;;46.78;21.17;;;-7.20;99.90;;;;;;5044597;28;20091;-49
2022/12/14 06:30:47;;;;;;;49.05;21.90;;;-7.20;99.90;;;;;;5043963;28;20117;-48
2022/12/14 06:33:13;;;;;;;50.80;21.63;;;-7.30;99.90;;;;;;5048249;28;20103;-49
2022/12/14 06:35:43;;;;;;;45.38;21.33;;;-7.30;99.90;;;;;;5039528;28;20025;-48
2022/12/14 06:38:09;;;;;;;48.20;22.13;;;-7.20;99.90;;;;;;5041279;28;20037;-48
2022/12/14 06:40:34;;;;;;;48.40;20.42;;;-7.30;99.90;;;;;;5044570;28;20033;-48
2022/12/14 06:43:00;;;;;;;56.67;19.52;;;-7.20;99.90;;;;;;5047702;28;20437;-48
2022/12/14 06:45:26;;;;;;;51.42;21.00;;;-7.20;99.90;;;;;;5043463;28;20482;-48
2022/12/14 06:47:52;;;;;;;44.67;19.80;;;-7.20;99.90;;;;;;5040203;28;20044;-48
2022/12/14 06:50:17;;;;;;;44.33;20.75;;;-7.20;99.90;;;;;;5037356;28;20502;-49
2022/12/14 06:52:43;;;;;;;45.70;19.75;;;-7.20;99.90;;;;;;5038034;28;20105;-48
2022/12/14 06:55:08;;;;;;;47.97;20.70;;;-7.10;99.90;;;;;;5039157;28;20104;-48
2022/12/14 06:57:34;;;;;;;50.63;20.65;;;-7.20;99.90;;;;;;5036295;28;20559;-48
2022/12/14 06:59:59;;;;;;;40.25;20.48;;;-7.20;99.90;;;;;;5038058;28;20021;-49
2022/12/14 07:02:25;;;;;;;55.10;22.40;;;-7.10;99.90;;;;;;5037644;28;20145;-49
2022/12/14 07:04:50;;;;;;;57.03;22.13;;;-7.10;99.90;;;;;;5037736;28;20025;-49
2022/12/14 07:07:16;;;;;;;52.65;21.65;;;-7.10;99.90;;;;;;5037506;28;20013;-51
2022/12/14 07:09:41;;;;;;;41.40;20.85;;;-7.20;99.90;;;;;;5037631;28;20410;-49
2022/12/14 07:12:07;;;;;;;42.60;19.50;;;-7.10;99.90;;;;;;5038878;28;20025;-49
2022/12/14 07:14:32;;;;;;;44.17;24.27;;;-7.10;99.90;;;;;;5044184;28;20032;-48
2022/12/14 07:16:58;;;;;;;51.70;21.15;;;-7.20;99.90;;;;;;5039983;28;20498;-48
2022/12/14 07:19:23;;;;;;;54.42;20.77;;;-7.20;99.90;;;;;;5037147;28;20119;-54
2022/12/14 07:21:49;;;;;;;51.00;22.27;;;-7.10;99.90;;;;;;5038660;28;20383;-49
2022/12/14 07:24:15;;;;;;;47.50;23.05;;;-7.10;99.90;;;;;;5038864;28;20095;-49
2022/12/14 07:26:41;;;;;;;50.88;23.13;;;-7.10;99.90;;;;;;5037508;28;20103;-49
2022/12/14 07:29:08;;;;;;;56.47;23.40;;;-7.10;99.90;;;;;;5036479;28;20119;-49
2022/12/14 07:31:33;;;;;;;57.33;25.63;;;-7.10;99.90;;;;;;5039049;28;20036;-49
2022/12/14 07:33:59;;;;;;;51.55;22.95;;;-7.10;99.90;;;;;;5039445;28;20057;-48
2022/12/14 07:36:27;;;;;;;49.00;24.05;;;-7.10;99.90;;;;;;5039375;28;20501;-48
2022/12/14 07:38:54;;;;;;;51.42;24.17;;;-7.10;99.90;;;;;;5042133;28;20021;-49
2022/12/14 07:41:29;;;;;;;55.53;24.65;;;-7.00;99.90;;;;;;5041030;28;20029;-49
2022/12/14 07:43:56;;;;;;;54.03;22.90;;;-7.00;99.90;;;;;;5046235;28;20371;-48
2022/12/14 07:46:25;;;;;;;51.78;22.98;;;-7.00;99.90;;;;;;5040680;28;20021;-51
2022/12/14 07:48:53;;;;;;;50.40;25.23;;;-6.90;99.90;;;;;;5036431;28;20071;-49
2022/12/14 07:51:21;;;;;;;47.20;22.42;;;-6.90;99.90;;;;;;5038276;28;20051;-49
2022/12/14 07:53:47;;;;;;;47.58;22.27;;;-6.90;99.90;;;;;;5038434;28;20022;-51
2022/12/14 07:56:16;;;;;;;52.47;22.58;;;-6.90;99.90;;;;;;5033119;28;20029;-50
2022/12/14 07:58:42;;;;;;;50.80;22.55;;;-6.80;99.90;;;;;;5037943;28;20029;-49
2022/12/14 08:01:12;;;;;;;50.13;20.55;;;-6.80;99.90;;;;;;5039772;28;20642;-50
2022/12/14 08:03:40;;;;;;;52.03;24.02;;;-6.70;99.90;;;;;;5033874;28;20479;-50
2022/12/14 08:06:07;;;;;;;49.78;22.58;;;-6.70;99.90;;;;;;5037670;28;20045;-50
2022/12/14 08:08:33;;;;;;;46.35;22.15;;;-6.70;99.90;;;;;;5036931;28;20028;-50
2022/12/14 08:10:59;;;;;;;45.42;21.63;;;-6.70;99.90;;;;;;5044959;28;20832;-51
2022/12/14 08:13:24;;;;;;;52.60;23.10;;;-6.60;99.90;;;;;;5044114;28;20146;-49
2022/12/14 08:15:50;;;;;;;45.58;21.20;;;-6.60;99.90;;;;;;5041500;28;20389;-50
2022/12/14 08:18:15;;;;;;;52.53;23.25;;;-6.50;99.90;;;;;;5043926;28;20103;-51
2022/12/14 08:20:41;;;;;;;53.53;21.90;;;-6.50;99.90;;;;;;5043279;28;20440;-51
2022/12/14 08:23:08;;;;;;;51.10;22.45;;;-6.50;99.90;;;;;;5043252;28;20109;-50
2022/12/14 08:25:33;;;;;;;53.95;21.77;;;-6.40;99.90;;;;;;5040692;28;20072;-49
2022/12/14 08:27:59;;;;;;;46.08;19.80;;;-6.40;99.90;;;;;;5041521;28;20119;-50
2022/12/14 08:30:24;;;;;;;53.00;22.40;;;-6.30;99.90;;;;;;5040878;28;20025;-51
2022/12/14 08:32:50;;;;;;;49.25;21.90;;;-6.30;99.90;;;;;;5040144;28;20068;-51
2022/12/14 08:35:15;;;;;;;55.92;23.17;;;-6.30;99.90;;;;;;5039884;28;20039;-51
2022/12/14 08:37:41;;;;;;;53.90;21.92;;;-6.20;99.90;;;;;;5040908;28;20119;-50
2022/12/14 08:40:07;;;;;;;58.33;24.23;;;-6.20;99.90;;;;;;5040823;28;20249;-51
2022/12/14 08:42:33;;;;;;;54.22;23.15;;;-6.10;99.90;;;;;;5039622;28;20021;-50
2022/12/14 08:44:58;;;;;;;57.10;24.25;;;-6.10;99.90;;;;;;5046301;28;20017;-51
2022/12/14 08:47:23;;;;;;;55.88;23.58;;;-6.10;99.90;;;;;;5042286;28;20032;-49
2022/12/14 08:49:49;;;;;;;49.42;22.63;;;-6.10;99.90;;;;;;5039249;28;20047;-49
2022/12/14 08:52:15;;;;;;;53.65;23.63;;;-6.10;99.90;;;;;;5041563;28;20021;-49
2022/12/14 08:54:41;;;;;;;57.35;22.75;;;-6.00;99.90;;;;;;5040147;28;20033;-53
2022/12/14 08:57:06;;;;;;;61.38;24.25;;;-6.00;99.90;;;;;;5039279;28;20417;-50
2022/12/14 08:59:31;;;;;;;64.32;24.42;;;-5.90;99.90;;;;;;5041623;28;20082;-50
2022/12/14 09:01:57;;;;;;;60.92;24.02;;;-5.90;99.90;;;;;;5039672;28;20022;-49
2022/12/14 09:04:23;;;;;;;56.60;24.15;;;-5.80;99.90;;;;;;5040236;28;20040;-52
2022/12/14 09:06:49;;;;;;;57.25;23.58;;;-5.70;99.90;;;;;;5041305;28;20687;-51
2022/12/14 09:09:14;;;;;;;61.55;25.27;;;-5.70;99.90;;;;;;5038710;28;20021;-52
2022/12/14 09:11:39;;;;;;;56.95;23.90;;;-5.60;99.90;;;;;;5040655;28;20028;-50
2022/12/14 09:14:05;;;;;;;518.78;205.93;;;-5.70;99.90;;;;;;5045741;28;20048;-50
2022/12/14 09:16:30;;;;;;;177.10;71.15;;;-5.60;99.90;;;;;;5041120;28;20466;-44
2022/12/14 09:18:56;;;;;;;55.70;25.98;;;-5.40;99.90;;;;;;5043602;28;20040;-43
2022/12/14 09:21:22;;;;;;;65.07;24.67;;;-5.30;99.90;;;;;;5039673;28;20029;-45
2022/12/14 09:23:47;;;;;;;54.03;23.67;;;-5.30;99.90;;;;;;5038771;28;20484;-43
2022/12/14 09:26:21;;;;;;;55.28;22.48;;;-5.30;99.90;;;;;;5040956;28;20162;-47
2022/12/14 09:28:52;;;;;;;52.58;21.20;;;-5.20;99.90;;;;;;5038999;28;20048;-43
2022/12/14 09:31:20;;;;;;;48.55;22.40;;;-5.00;99.90;;;;;;5040586;28;20128;-47
2022/12/14 09:33:46;;;;;;;46.17;22.40;;;-5.00;99.90;;;;;;5049749;28;20032;-43
2022/12/14 09:36:18;;;;;;;58.03;25.52;;;-5.00;99.90;;;;;;5050019;28;20136;-44
2022/12/14 09:38:44;;;;;;;44.72;24.00;;;-5.00;99.90;;;;;;5050103;28;20036;-44
2022/12/14 09:41:33;;;;;;;48.25;23.98;;;-4.90;99.90;;;;;;5049595;28;20041;-47
2022/12/14 09:44:23;;;;;;;50.15;23.77;;;-4.90;99.90;;;;;;5049694;28;20033;-45
2022/12/14 09:47:18;;;;;;;46.35;21.33;;;-4.80;99.90;;;;;;5049749;28;20422;-42
2022/12/14 09:49:55;;;;;;;46.88;22.63;;;-4.70;99.90;;;;;;5048933;28;20033;-43
2022/12/14 09:52:47;;;;;;;45.92;21.98;;;-4.70;99.90;;;;;;5037054;28;20037;-42
2022/12/14 09:55:25;;;;;;;43.08;22.52;;;-4.60;99.90;;;;;;5029969;28;20025;-44
2022/12/14 09:57:55;;;;;;;41.92;23.27;;;-4.60;99.90;;;;;;5030246;28;20097;-42
2022/12/14 10:00:21;;;;;;;55.47;22.17;;;-4.50;99.90;;;;;;5029648;28;20362;-44
2022/12/14 10:02:52;;;;;;;47.42;22.63;;;-4.50;99.90;;;;;;5030241;28;20021;-43
2022/12/14 10:05:30;;;;;;;44.38;21.35;;;-4.40;99.90;;;;;;5029999;28;20021;-44
2022/12/14 10:08:18;;;;;;;44.15;20.58;;;-4.40;99.90;;;;;;5028830;28;20025;-47
2022/12/14 10:10:55;;;;;;;49.58;21.13;;;-4.30;99.90;;;;;;5029566;28;20031;-45
2022/12/14 10:13:54;;;;;;;45.13;21.33;;;-4.30;99.90;;;;;;5030055;28;20487;-44
2022/12/14 10:16:57;;;;;;;48.63;22.23;;;-4.10;99.90;;;;;;5037817;28;20021;-46
2022/12/14 10:19:39;;;;;;;45.05;20.65;;;-4.10;99.90;;;;;;5040088;28;20040;-43
2022/12/14 10:22:14;;;;;;;45.00;22.13;;;-4.00;99.90;;;;;;5049663;28;20021;-44
2022/12/14 10:25:11;;;;;;;44.28;22.40;;;-3.80;99.90;;;;;;5038289;28;20033;-44
2022/12/14 10:27:38;;;;;;;49.03;22.40;;;-3.70;99.90;;;;;;5035294;28;20090;-44
2022/12/14 10:30:13;;;;;;;52.35;24.80;;;-3.70;99.90;;;;;;5038695;28;20021;-44
2022/12/14 10:32:43;;;;;;;42.80;22.27;;;-3.70;99.90;;;;;;5040160;28;20032;-43
2022/12/14 10:35:17;;;;;;;40.08;21.33;;;-3.60;99.90;;;;;;5039103;28;20054;-44
2022/12/14 10:37:52;;;;;;;45.42;22.30;;;-3.50;99.90;;;;;;5037823;28;20037;-44
2022/12/14 10:40:29;;;;;;;44.38;22.85;;;-3.50;99.90;;;;;;5037191;28;20028;-45
2022/12/14 10:43:10;;;;;;;51.92;23.15;;;-3.50;99.90;;;;;;5045479;28;20078;-46
2022/12/14 10:46:03;;;;;;;45.10;22.48;;;-3.40;99.90;;;;;;5049595;28;20075;-45
2022/12/14 10:48:57;;;;;;;41.28;22.08;;;-2.90;99.90;;;;;;5047691;28;20448;-45
2022/12/14 10:51:25;;;;;;;47.30;21.73;;;-1.80;99.90;;;;;;5048797;28;20071;-46
2022/12/14 10:54:09;;;;;;;45.53;21.90;;;-0.80;99.90;;;;;;5048903;28;20125;-45
2022/12/14 10:56:39;;;;;;;44.42;22.83;;;0.10;99.90;;;;;;5049155;28;20039;-41
2022/12/14 10:59:20;;;;;;;36.38;21.35;;;1.00;99.90;;;;;;5048925;28;20040;-46
2022/12/14 11:01:51;;;;;;;35.92;21.65;;;0.90;99.70;;;;;;5048977;28;20418;-45
2022/12/14 11:04:41;;;;;;;37.88;22.42;;;0.80;99.40;;;;;;5048591;28;20032;-42
2022/12/14 11:07:09;;;;;;;36.17;20.73;;;0.70;99.50;;;;;;5048951;28;20021;-46
2022/12/14 11:09:37;;;;;;;37.70;21.23;;;0.80;99.90;;;;;;5048419;28;20039;-42
2022/12/14 11:12:06;;;;;;;37.83;22.65;;;0.80;99.50;;;;;;5048928;28;20219;-43
2022/12/14 11:14:34;;;;;;;36.95;22.20;;;0.30;99.70;;;;;;5038822;28;20037;-43
2022/12/14 11:17:00;;;;;;;39.05;22.50;;;-0.20;99.90;;;;;;5029017;28;20071;-42
2022/12/14 11:19:26;;;;;;;43.50;24.55;;;-0.70;99.90;;;;;;5032545;28;20057;-45
2022/12/14 11:22:13;;;;;;;40.88;23.48;;;-1.00;99.90;;;;;;5040749;28;20028;-42
2022/12/14 11:24:46;;;;;;;41.38;24.48;;;-1.40;99.90;;;;;;5039364;28;20028;-43
2022/12/14 11:27:16;;;;;;;44.28;23.73;;;-1.90;99.90;;;;;;5036802;28;20084;-45
2022/12/14 11:29:46;;;;;;;40.78;22.98;;;-2.00;99.90;;;;;;5037526;28;20025;-45
2022/12/14 11:32:22;;;;;;;41.58;24.50;;;-2.30;99.90;;;;;;5038746;28;20041;-43
2022/12/14 11:34:55;;;;;;;43.05;23.30;;;-2.50;99.90;;;;;;5038647;28;20632;-44
2022/12/14 11:37:22;;;;;;;50.30;25.13;;;-2.50;99.90;;;;;;5037592;28;20045;-43
2022/12/14 11:39:57;;;;;;;47.90;25.80;;;-2.50;99.90;;;;;;5047612;28;20122;-42
2022/12/14 11:42:24;;;;;;;50.42;26.73;;;-2.60;99.90;;;;;;5048881;28;20028;-43
2022/12/14 11:44:51;;;;;;;45.25;25.02;;;-2.50;99.90;;;;;;5051944;28;20025;-43
2022/12/14 11:47:28;;;;;;;52.05;25.83;;;-2.60;99.90;;;;;;5052153;28;20043;-43
2022/12/14 11:49:55;;;;;;;48.20;25.77;;;-2.60;99.90;;;;;;5051537;28;20025;-42
2022/12/14 11:52:38;;;;;;;47.97;24.15;;;-2.70;99.90;;;;;;5051992;28;20025;-46
2022/12/14 11:55:16;;;;;;;53.38;27.33;;;-2.60;99.90;;;;;;5051865;28;20017;-47
2022/12/14 11:57:57;;;;;;;55.40;28.25;;;-2.60;99.90;;;;;;5051853;28;20025;-47
2022/12/14 12:00:29;;;;;;;58.95;29.80;;;-2.60;99.90;;;;;;5051247;28;20028;-43
2022/12/14 12:03:07;;;;;;;60.78;26.67;;;-2.60;99.90;;;;;;5051535;28;20032;-42
2022/12/14 12:05:37;;;;;;;47.92;24.73;;;-2.60;99.90;;;;;;5051832;28;20417;-44
2022/12/14 12:08:06;;;;;;;53.10;26.80;;;-2.50;99.90;;;;;;5051682;28;20021;-42
2022/12/14 12:10:44;;;;;;;48.53;24.45;;;-2.50;99.90;;;;;;5050857;28;20017;-43
2022/12/14 12:13:22;;;;;;;55.17;25.17;;;-2.40;99.90;;;;;;5051341;28;20043;-44
2022/12/14 12:15:55;;;;;;;56.63;28.15;;;-2.40;99.90;;;;;;5051126;28;20482;-42
2022/12/14 12:18:47;;;;;;;50.97;25.20;;;-2.50;99.90;;;;;;5051318;28;20036;-44
2022/12/14 12:21:28;;;;;;;55.45;26.75;;;-2.40;99.90;;;;;;5043491;28;20064;-43
2022/12/14 12:24:21;;;;;;;57.72;28.98;;;-2.40;99.90;;;;;;5049796;28;20021;-43
2022/12/14 12:26:51;;;;;;;55.70;28.67;;;-2.40;99.90;;;;;;5051190;28;20029;-43
2022/12/14 12:29:23;;;;;;;56.28;27.75;;;-2.40;99.90;;;;;;5049334;28;20048;-43
2022/12/14 12:32:00;;;;;;;49.72;26.27;;;-2.30;99.90;;;;;;5050070;28;20028;-45
2022/12/14 12:34:44;;;;;;;52.20;26.83;;;-2.30;99.90;;;;;;5051285;28;20237;-46
2022/12/14 12:37:17;;;;;;;55.03;26.40;;;-2.30;99.90;;;;;;5050100;28;20025;-44
2022/12/14 12:39:49;;;;;;;49.88;25.40;;;-2.30;99.90;;;;;;5049639;28;20060;-43
2022/12/14 12:42:25;;;;;;;49.10;24.85;;;-2.20;99.90;;;;;;5051172;28;20106;-44
2022/12/14 12:45:00;;;;;;;49.13;24.08;;;-2.20;99.90;;;;;;5051195;28;20032;-42
2022/12/14 12:47:35;;;;;;;63.78;28.95;;;-2.20;99.90;;;;;;5052435;28;20025;-45
2022/12/14 12:50:05;;;;;;;51.70;26.45;;;-2.30;99.90;;;;;;5051929;28;20040;-43
2022/12/14 12:52:47;;;;;;;55.13;28.17;;;-2.30;99.90;;;;;;5052186;28;20036;-44
2022/12/14 12:55:17;;;;;;;60.92;29.10;;;-2.30;99.90;;;;;;5051081;28;20039;-45
2022/12/14 12:57:48;;;;;;;51.60;26.57;;;-2.30;99.90;;;;;;5051272;28;20179;-43
2022/12/14 13:00:17;;;;;;;59.55;27.98;;;-2.30;99.90;;;;;;5050417;28;20175;-45
2022/12/14 13:03:19;;;;;;;64.38;20.50;;;-2.30;99.90;;;;;;5050376;28;20417;-43
2022/12/14 13:05:45;;;;;;;51.55;24.35;;;-2.30;99.90;;;;;;5048812;28;20459;-44
2022/12/14 13:08:27;;;;;;;54.28;27.63;;;-2.30;99.90;;;;;;5049312;28;20163;-44